Terminal Aerodrome Forecast
Issued by NWS Wilmington, NC

Home | Current Version | Previous Version | Text Only | Print | Product List | Glossary On
Versions: 1 2 3 4 5 6 7 8 9 10 11 12 13 14
000
FTUS42 KILM 210500
TAFMYR
TAF
KMYR 210523Z 2106/2206 02008KT 6SM BR FEW008 BKN035 OVC060
     FM211500 03011KT P6SM -RA BKN020 BKN050
     FM212300 03010KT 6SM -RA BR SCT008 OVC015
      AMD LTD TO CLD VIS AND WIND TIL 211100=

USA.gov is the U.S. government's official web portal to all federal, state and local government web resources and services.